10:39
Airports
History
Links
Donate
Help keep this website running!
PayPal
Bitcoin
Information on this page is community maintained and may be outdated or inaccurate and is intended for reference only or PC simulator navigating.
Always use approved charts for navigating.
3J4
Bald Eagle Air Park
Bald Eagle Air Park (3J4)
Southaven, Mississippi, United States (38672)
4
Lat/Lng:34° 54' 36.34" N / 89° 57' 33.33" W
34.910095 / -89.959257
Elevation:405'ft 123mMSL
ID / ICAO:3J4
Runways:1
Longest:(18-36) 917.3m 3,010ft Grass
Distance To
Airport ID:
Nearby VORs <50NM
Nearby NDBs
Nearby WeatherUpdated 07-26-17 09:54 GMT
Nearby weather at KMEM, Memphis Intl located 9.2 nautical miles from 3J4
Altimeter: 30.09
Visibility: 10.0 statute miles
Wind: 0 knots (000°)
Temp: 26°c 79°f
Humidity: 88.8%

METAR: KMEM 260954Z 00000KT 10SM CLR 26/24 A3009 RMK AO2 SLP184 T02560244

(Powered by phpweather)
Runway 18 / 36
Dimensions:917.3 x 21.3m 3010' x 70'ft
Surface:Grass
Runway 18 [A]Runway 36 [B]
Heading:181°TH 001°TH
Lat:
Lng:
34° 54' 51.15"N
89° 57' 32.69"W
34° 54' 21.54"N
89° 57' 33.95"W
User Notes and Comments
Google Map
Nearby Airports
(R) Vaiden Landing 6.3 NM
MS64 SE 132°
(R) Eagles Ridge 8.2 NM
1MS6 SSE 161°
4 Hernando Village Airpark, Inc 8.9 NM
H75 SSW 209°
(C) Memphis Intl 9.2 NM
KMEM (WX) N 353°
4 Davis Field 9.9 NM
MS62 NE 55°
(C) Olive Branch 10.9 NM
KOLV ENE 64°
4 Twinkletown 11.9 NM
2M6 W 277°
VFR Chart
Flight Planning at SkyVector.com